Time;durP1;ratioP1;P1;durP2;ratioP2;P2;SDS_P1;SDS_P2;PMS_P1;PMS_P2;Temp;Humidity;BMP_temperature;BMP_pressure;BME280_temperature;BME280_humidity;BME280_pressure;Samples;Min_cycle;Max_cycle;Signal;HPM_P1;HPM_P2
2021/11/03 00:00:39;;;;;;;95.80;32.50;;;4.50;99.90;;;;;;4998196;28;20108;-84
2021/11/03 00:03:05;;;;;;;132.85;34.78;;;4.50;99.90;;;;;;4998159;28;20061;-84
2021/11/03 00:05:31;;;;;;;79.03;31.48;;;4.50;99.90;;;;;;4997286;28;20493;-84
2021/11/03 00:07:59;;;;;;;83.28;34.53;;;4.50;99.90;;;;;;4997533;28;20034;-84
2021/11/03 00:10:24;;;;;;;76.03;32.20;;;4.50;99.90;;;;;;4997630;28;20021;-84
2021/11/03 00:12:50;;;;;;;69.55;31.90;;;4.50;99.90;;;;;;4994003;28;20027;-84
2021/11/03 00:15:16;;;;;;;64.80;30.95;;;4.50;99.90;;;;;;5023554;28;20479;-84
2021/11/03 00:17:42;;;;;;;79.05;31.50;;;4.50;99.90;;;;;;5013150;28;20034;-84
2021/11/03 00:20:10;;;;;;;80.50;32.08;;;4.40;99.90;;;;;;5023921;28;20051;-83
2021/11/03 00:22:36;;;;;;;74.53;32.42;;;4.40;99.90;;;;;;5034904;28;20025;-84
2021/11/03 00:25:03;;;;;;;77.28;33.83;;;4.40;99.90;;;;;;5002646;28;20033;-84
2021/11/03 00:27:29;;;;;;;70.20;32.72;;;4.30;99.90;;;;;;5014798;28;20022;-84
2021/11/03 00:29:54;;;;;;;76.13;32.58;;;4.30;99.90;;;;;;5013504;28;20024;-84
2021/11/03 00:32:20;;;;;;;82.55;33.08;;;4.40;99.90;;;;;;4996999;28;20090;-84
2021/11/03 00:34:45;;;;;;;69.35;30.98;;;4.30;99.90;;;;;;4998446;28;20029;-84
2021/11/03 00:37:13;;;;;;;68.70;32.22;;;4.30;99.90;;;;;;5004354;28;20121;-84
2021/11/03 00:39:39;;;;;;;77.43;33.55;;;4.30;99.90;;;;;;4995491;28;20036;-84
2021/11/03 00:42:05;;;;;;;73.55;32.55;;;4.30;99.90;;;;;;4994766;28;20023;-84
2021/11/03 00:44:30;;;;;;;74.13;32.88;;;4.30;99.90;;;;;;4977835;28;20506;-84
2021/11/03 00:46:56;;;;;;;69.88;30.83;;;4.20;99.90;;;;;;5011053;28;20385;-83
2021/11/03 00:49:21;;;;;;;80.78;33.15;;;4.20;99.90;;;;;;5002428;28;20554;-84
2021/11/03 00:51:47;;;;;;;75.75;32.83;;;4.20;99.90;;;;;;5000587;28;20034;-83
2021/11/03 00:54:13;;;;;;;65.40;30.58;;;4.20;99.90;;;;;;4993733;28;20018;-84
2021/11/03 00:56:39;;;;;;;91.13;32.28;;;4.20;99.90;;;;;;4993017;28;20122;-84
2021/11/03 00:59:04;;;;;;;71.95;31.95;;;4.20;99.90;;;;;;4999232;28;20037;-83
2021/11/03 01:01:31;;;;;;;70.38;30.92;;;4.10;99.90;;;;;;4992140;28;20091;-84
2021/11/03 01:03:56;;;;;;;110.18;32.92;;;4.10;99.90;;;;;;5016756;28;20159;-84
2021/11/03 01:06:22;;;;;;;62.72;29.67;;;4.10;99.90;;;;;;4993747;28;20038;-84
2021/11/03 01:08:48;;;;;;;122.75;35.70;;;4.10;99.90;;;;;;4977402;28;20062;-84
2021/11/03 01:11:14;;;;;;;68.93;30.95;;;4.10;99.90;;;;;;4987372;28;20027;-84
2021/11/03 01:13:40;;;;;;;80.90;31.38;;;4.00;99.90;;;;;;4996436;28;20025;-84
2021/11/03 01:16:06;;;;;;;101.05;35.65;;;4.00;99.90;;;;;;4997198;28;20045;-84
2021/11/03 01:18:33;;;;;;;68.43;28.75;;;4.00;99.90;;;;;;4989813;28;20069;-84
2021/11/03 01:21:00;;;;;;;74.13;29.85;;;3.90;99.90;;;;;;5002550;28;20038;-84
2021/11/03 01:23:27;;;;;;;77.70;31.15;;;3.90;99.90;;;;;;4993355;28;20031;-84
2021/11/03 01:25:53;;;;;;;77.60;30.95;;;3.80;99.90;;;;;;5013174;28;20030;-83
2021/11/03 01:28:20;;;;;;;62.53;29.00;;;3.80;99.90;;;;;;5013439;28;20033;-84
2021/11/03 01:30:47;;;;;;;65.47;29.92;;;3.70;99.90;;;;;;4978716;28;20032;-84
2021/11/03 01:33:15;;;;;;;59.30;28.85;;;3.70;99.90;;;;;;5009022;28;20385;-84
2021/11/03 01:35:40;;;;;;;63.15;28.50;;;3.60;99.90;;;;;;5007552;28;20015;-83
2021/11/03 01:38:06;;;;;;;69.93;29.67;;;3.60;99.90;;;;;;4989050;28;20108;-83
2021/11/03 01:40:35;;;;;;;67.65;25.55;;;3.50;99.90;;;;;;4987638;28;20053;-84
2021/11/03 01:43:02;;;;;;;70.07;28.63;;;3.50;99.90;;;;;;4982841;28;20030;-83
2021/11/03 01:45:30;;;;;;;59.13;27.13;;;3.40;99.90;;;;;;4984310;28;20025;-83
2021/11/03 01:48:00;;;;;;;123.75;30.27;;;3.40;99.90;;;;;;4999975;28;20052;-84
2021/11/03 01:50:40;;;;;;;66.75;27.65;;;3.40;99.90;;;;;;4999450;28;20030;-84
2021/11/03 01:53:19;;;;;;;58.42;28.02;;;3.30;99.90;;;;;;5027201;28;20112;-84
2021/11/03 01:56:07;;;;;;;143.05;23.63;;;3.30;99.90;;;;;;4990493;28;20026;-83
2021/11/03 01:58:45;;;;;;;178.98;22.88;;;3.30;99.90;;;;;;4981911;28;20034;-83
2021/11/03 02:01:11;;;;;;;89.30;24.77;;;3.20;99.90;;;;;;5000226;28;20018;-83
2021/11/03 02:03:38;;;;;;;103.30;27.48;;;3.00;99.90;;;;;;4998053;28;20029;-83
2021/11/03 02:06:08;;;;;;;75.32;27.08;;;3.00;99.90;;;;;;5014547;28;20029;-83
2021/11/03 02:08:38;;;;;;;97.75;27.42;;;2.90;99.90;;;;;;4980564;28;20034;-83
2021/11/03 02:11:04;;;;;;;94.43;30.02;;;3.00;99.90;;;;;;4989636;28;20022;-84
2021/11/03 02:13:30;;;;;;;91.35;28.05;;;3.00;99.90;;;;;;4980680;28;20041;-84
2021/11/03 02:15:56;;;;;;;75.68;27.92;;;3.00;99.90;;;;;;4994225;28;20022;-83
2021/11/03 02:18:23;;;;;;;58.95;27.40;;;3.00;99.90;;;;;;5008002;28;20528;-83
2021/11/03 02:20:51;;;;;;;71.63;27.80;;;3.00;99.90;;;;;;4999242;28;20044;-84
2021/11/03 02:23:37;;;;;;;57.17;27.75;;;3.10;99.90;;;;;;5016880;28;20099;-83
2021/11/03 02:26:18;;;;;;;58.08;27.75;;;3.10;99.90;;;;;;5008302;28;20022;-83
2021/11/03 02:28:46;;;;;;;65.80;26.67;;;3.10;99.90;;;;;;5016292;28;20037;-84
2021/11/03 02:31:53;;;;;;;58.55;28.75;;;3.10;99.90;;;;;;4999199;28;20033;-84
2021/11/03 02:34:25;;;;;;;57.28;27.45;;;3.10;99.90;;;;;;4915317;29;20119;-84
2021/11/03 02:36:59;;;;;;;83.97;30.30;;;3.10;99.90;;;;;;4994800;28;20123;-84
2021/11/03 02:39:40;;;;;;;64.90;28.63;;;3.00;99.90;;;;;;5010654;28;20479;-84
2021/11/03 02:42:07;;;;;;;54.45;27.15;;;3.00;99.90;;;;;;4983152;28;20188;-83
2021/11/03 02:44:35;;;;;;;56.28;23.58;;;2.90;99.90;;;;;;4998341;28;20417;-84
2021/11/03 02:47:02;;;;;;;200.63;26.92;;;2.90;99.90;;;;;;4999053;28;20030;-84
2021/11/03 02:49:28;;;;;;;64.75;24.02;;;2.90;99.90;;;;;;4990911;28;20124;-83
2021/11/03 02:51:53;;;;;;;148.40;20.80;;;2.80;99.90;;;;;;5006580;28;20029;-83
2021/11/03 02:54:21;;;;;;;93.18;20.15;;;2.70;99.90;;;;;;5000277;28;20033;-83
2021/11/03 02:56:54;;;;;;;108.60;24.10;;;2.70;99.90;;;;;;4999254;28;20536;-84
2021/11/03 02:59:23;;;;;;;100.40;22.65;;;2.70;99.90;;;;;;5001193;28;20083;-83
2021/11/03 03:01:53;;;;;;;194.80;30.60;;;2.80;99.90;;;;;;4995130;28;20422;-83
2021/11/03 03:04:23;;;;;;;120.78;27.42;;;2.80;99.90;;;;;;5027453;28;20030;-84
2021/11/03 03:06:49;;;;;;;91.22;25.35;;;2.90;99.90;;;;;;4999193;28;20080;-84
2021/11/03 03:09:15;;;;;;;71.47;26.38;;;2.90;99.90;;;;;;4998209;28;20030;-84
2021/11/03 03:11:43;;;;;;;109.07;28.30;;;3.00;99.90;;;;;;4998542;28;20051;-83
2021/11/03 03:14:09;;;;;;;276.73;38.15;;;3.10;99.90;;;;;;4999113;28;20022;-83
2021/11/03 03:16:35;;;;;;;260.10;39.15;;;3.20;99.90;;;;;;4998749;28;20045;-83
2021/11/03 03:19:01;;;;;;;278.17;39.72;;;3.30;99.90;;;;;;4998401;28;20046;-83
2021/11/03 03:21:29;;;;;;;273.85;40.35;;;3.40;99.90;;;;;;4998332;28;20101;-83
2021/11/03 03:23:55;;;;;;;473.58;49.33;;;3.50;99.90;;;;;;4992067;28;20022;-84
2021/11/03 03:26:22;;;;;;;286.60;42.20;;;3.50;99.90;;;;;;4989185;28;20517;-83
2021/11/03 03:28:48;;;;;;;355.48;42.90;;;3.60;99.90;;;;;;4998344;28;20029;-84
2021/11/03 03:31:16;;;;;;;188.18;36.53;;;3.60;99.90;;;;;;4998148;28;20494;-84
2021/11/03 03:33:43;;;;;;;348.77;42.67;;;3.70;99.90;;;;;;4989177;28;20487;-84
2021/11/03 03:36:09;;;;;;;377.10;46.97;;;3.80;99.90;;;;;;4987725;28;20056;-84
2021/11/03 03:38:35;;;;;;;477.35;51.97;;;3.80;99.90;;;;;;4998100;28;20451;-84
2021/11/03 03:41:01;;;;;;;201.77;35.40;;;3.80;99.90;;;;;;5015723;28;20515;-83
2021/11/03 03:43:27;;;;;;;261.60;45.00;;;3.90;99.90;;;;;;5002713;28;20071;-84
2021/11/03 03:45:52;;;;;;;269.65;38.97;;;3.90;99.90;;;;;;5016748;28;20557;-84
2021/11/03 03:48:18;;;;;;;203.32;35.67;;;3.90;99.90;;;;;;4992173;28;20060;-84
2021/11/03 03:50:44;;;;;;;272.02;41.88;;;3.80;99.90;;;;;;5001820;28;20490;-84
2021/11/03 03:53:10;;;;;;;133.40;32.67;;;3.90;99.90;;;;;;5010217;28;20034;-84
2021/11/03 03:55:38;;;;;;;190.18;36.08;;;3.90;99.90;;;;;;5017654;28;20021;-84
2021/11/03 03:58:04;;;;;;;232.65;40.35;;;3.80;99.90;;;;;;5004912;28;20041;-84
2021/11/03 04:00:30;;;;;;;150.60;31.95;;;3.90;99.90;;;;;;4979205;28;20414;-83
2021/11/03 04:02:57;;;;;;;159.95;34.20;;;3.80;99.90;;;;;;4987063;28;20076;-84
2021/11/03 04:05:23;;;;;;;291.38;43.25;;;3.80;99.90;;;;;;5004213;28;20026;-84
2021/11/03 04:07:48;;;;;;;163.50;34.28;;;3.80;99.90;;;;;;4997325;28;20029;-84
2021/11/03 04:10:14;;;;;;;114.43;31.98;;;3.70;99.90;;;;;;5007893;28;20025;-84
2021/11/03 04:12:41;;;;;;;160.85;36.53;;;3.70;99.90;;;;;;4978334;28;20026;-84
2021/11/03 04:15:08;;;;;;;90.60;29.55;;;3.70;99.90;;;;;;4993073;28;20026;-85
2021/11/03 04:17:33;;;;;;;165.60;33.92;;;3.70;99.90;;;;;;4999150;28;20389;-84
2021/11/03 04:19:59;;;;;;;125.55;32.00;;;3.70;99.90;;;;;;5017188;28;20021;-84
2021/11/03 04:22:24;;;;;;;211.27;37.85;;;3.70;99.90;;;;;;4980759;28;20109;-84
2021/11/03 04:24:50;;;;;;;204.80;37.65;;;3.70;99.90;;;;;;4993187;28;20037;-84
2021/11/03 04:27:15;;;;;;;140.45;32.92;;;3.70;99.90;;;;;;4988233;28;20022;-84
2021/11/03 04:29:41;;;;;;;152.45;35.42;;;3.60;99.90;;;;;;4997592;28;20026;-84
2021/11/03 04:32:08;;;;;;;163.55;33.40;;;3.60;99.90;;;;;;4996885;28;20026;-84
2021/11/03 04:34:33;;;;;;;239.25;37.00;;;3.60;99.90;;;;;;5016581;28;20067;-84
2021/11/03 04:36:59;;;;;;;155.43;32.40;;;3.50;99.90;;;;;;5018390;28;20046;-84
2021/11/03 04:39:25;;;;;;;204.27;36.42;;;3.50;99.90;;;;;;5014373;28;20034;-84
2021/11/03 04:41:51;;;;;;;100.88;30.08;;;3.50;99.90;;;;;;5001881;28;20037;-84
2021/11/03 04:44:16;;;;;;;211.93;38.92;;;3.40;99.90;;;;;;4992131;28;20061;-85
2021/11/03 04:46:42;;;;;;;100.40;29.33;;;3.40;99.90;;;;;;4991065;28;20077;-84
2021/11/03 04:49:08;;;;;;;124.30;30.98;;;3.40;99.90;;;;;;5014070;28;20512;-84
2021/11/03 04:51:33;;;;;;;113.20;31.98;;;3.40;99.90;;;;;;4985074;28;20018;-84
2021/11/03 04:53:59;;;;;;;83.00;29.83;;;3.40;99.90;;;;;;4991005;28;20116;-84
2021/11/03 04:56:26;;;;;;;148.27;33.05;;;3.40;99.90;;;;;;4985988;28;20030;-84
2021/11/03 04:58:53;;;;;;;120.60;33.58;;;3.40;99.90;;;;;;4990159;28;20030;-84
2021/11/03 05:01:21;;;;;;;135.15;36.42;;;3.40;99.90;;;;;;5001738;28;20042;-84
2021/11/03 05:03:48;;;;;;;205.85;35.58;;;3.40;99.90;;;;;;4998370;28;20022;-84
2021/11/03 05:06:17;;;;;;;101.90;28.95;;;3.40;99.90;;;;;;5007753;28;20057;-83
2021/11/03 05:08:43;;;;;;;92.15;29.17;;;3.40;99.90;;;;;;4979745;28;20026;-84
2021/11/03 05:11:09;;;;;;;160.57;34.03;;;3.40;99.90;;;;;;5010835;28;20037;-84
2021/11/03 05:13:35;;;;;;;116.13;35.28;;;3.40;99.90;;;;;;4995270;28;20117;-84
2021/11/03 05:16:01;;;;;;;110.97;33.75;;;3.40;99.90;;;;;;4998113;28;20100;-84
2021/11/03 05:18:27;;;;;;;116.20;33.58;;;3.40;99.90;;;;;;5013311;28;20056;-84
2021/11/03 05:20:52;;;;;;;87.50;32.50;;;3.40;99.90;;;;;;5004258;28;20046;-84
2021/11/03 05:23:18;;;;;;;101.95;33.90;;;3.40;99.90;;;;;;5000185;28;20029;-84
2021/11/03 05:25:44;;;;;;;99.82;32.38;;;3.40;99.90;;;;;;4996567;28;20064;-85
2021/11/03 05:28:10;;;;;;;106.63;33.97;;;3.40;99.90;;;;;;5014192;28;20105;-85
2021/11/03 05:30:36;;;;;;;108.75;34.75;;;3.40;99.90;;;;;;5013470;28;20108;-85
2021/11/03 05:33:03;;;;;;;155.43;39.15;;;3.50;99.90;;;;;;4992627;28;20117;-84
2021/11/03 05:35:29;;;;;;;64.88;30.95;;;3.50;99.90;;;;;;4992593;28;20435;-84
2021/11/03 05:37:55;;;;;;;104.10;32.80;;;3.50;99.90;;;;;;5025413;28;20029;-84
2021/11/03 05:40:25;;;;;;;167.40;36.42;;;3.50;99.90;;;;;;5027847;28;20509;-84
2021/11/03 05:42:51;;;;;;;63.47;30.50;;;3.60;99.90;;;;;;5013834;28;20090;-85
2021/11/03 05:45:17;;;;;;;102.57;32.40;;;3.60;99.90;;;;;;5010367;28;20105;-85
2021/11/03 05:47:42;;;;;;;145.52;33.55;;;3.60;99.90;;;;;;4995959;28;20022;-85
2021/11/03 05:50:13;;;;;;;217.20;41.58;;;3.60;99.90;;;;;;4996461;28;20025;-85
2021/11/03 05:52:38;;;;;;;105.40;31.30;;;3.60;99.90;;;;;;4996572;28;20604;-85
2021/11/03 05:55:05;;;;;;;119.50;33.85;;;3.60;99.90;;;;;;4995799;28;20116;-85
2021/11/03 05:57:34;;;;;;;73.90;30.58;;;3.60;99.90;;;;;;5001218;28;20029;-84
2021/11/03 06:00:01;;;;;;;96.78;30.85;;;3.60;99.90;;;;;;4994913;28;20077;-85
2021/11/03 06:02:26;;;;;;;128.90;34.03;;;3.60;99.90;;;;;;5004799;28;20032;-84
2021/11/03 06:04:52;;;;;;;91.88;31.02;;;3.60;99.90;;;;;;4995830;28;20474;-84
2021/11/03 06:07:21;;;;;;;101.80;33.20;;;3.60;99.90;;;;;;4993947;28;20395;-85
2021/11/03 06:09:47;;;;;;;130.75;36.70;;;3.60;99.90;;;;;;4988707;28;20093;-85
2021/11/03 06:12:13;;;;;;;81.68;31.73;;;3.60;99.90;;;;;;4996083;28;20470;-85
2021/11/03 06:14:39;;;;;;;63.13;28.52;;;3.60;99.90;;;;;;4996192;28;20022;-84
2021/11/03 06:17:05;;;;;;;141.68;35.75;;;3.60;99.90;;;;;;5003136;28;20050;-84
2021/11/03 06:19:31;;;;;;;163.48;37.55;;;3.60;99.90;;;;;;4999055;28;20046;-85
2021/11/03 06:21:56;;;;;;;98.85;31.40;;;3.60;99.90;;;;;;5015403;28;20050;-84
2021/11/03 06:24:23;;;;;;;171.98;37.72;;;3.60;99.90;;;;;;4996178;28;20026;-85
2021/11/03 06:26:49;;;;;;;88.28;32.58;;;3.60;99.90;;;;;;5010422;28;20152;-84
2021/11/03 06:29:14;;;;;;;81.68;31.60;;;3.60;99.90;;;;;;5013608;28;20061;-85
2021/11/03 06:31:40;;;;;;;70.47;29.88;;;3.50;99.90;;;;;;4995188;28;20022;-84
2021/11/03 06:34:07;;;;;;;152.13;36.85;;;3.50;99.90;;;;;;5016055;28;20045;-85
2021/11/03 06:36:34;;;;;;;154.35;37.85;;;3.50;99.90;;;;;;4999340;28;20093;-85
2021/11/03 06:38:59;;;;;;;100.32;34.33;;;3.50;99.90;;;;;;4996471;28;20037;-85
2021/11/03 06:41:26;;;;;;;92.90;32.75;;;3.50;99.90;;;;;;4999423;28;20033;-85
2021/11/03 06:43:51;;;;;;;154.38;38.00;;;3.50;99.90;;;;;;4996705;28;20030;-84
2021/11/03 06:46:17;;;;;;;114.20;36.20;;;3.50;99.90;;;;;;5008907;28;20048;-84
2021/11/03 06:48:43;;;;;;;78.90;30.38;;;3.50;99.90;;;;;;5001196;28;20089;-84
2021/11/03 06:51:09;;;;;;;143.35;35.38;;;3.50;99.90;;;;;;4995316;28;20044;-84
2021/11/03 06:53:35;;;;;;;95.60;32.10;;;3.50;99.90;;;;;;5024233;23;20053;-84
2021/11/03 06:56:01;;;;;;;207.40;40.63;;;3.60;99.90;;;;;;5031315;28;20028;-84
2021/11/03 06:58:30;;;;;;;213.15;40.60;;;3.60;99.90;;;;;;5021403;28;20548;-84
2021/11/03 07:00:57;;;;;;;101.63;33.63;;;3.60;99.90;;;;;;5016815;28;20026;-82
2021/11/03 07:03:24;;;;;;;184.45;40.58;;;3.60;99.90;;;;;;5020644;28;20394;-86
2021/11/03 07:05:51;;;;;;;154.15;39.00;;;3.60;99.90;;;;;;5014364;28;20026;-87
2021/11/03 07:08:18;;;;;;;193.85;40.05;;;3.60;99.90;;;;;;5018671;28;20489;-86
2021/11/03 07:10:47;;;;;;;283.25;43.78;;;3.60;99.90;;;;;;5020581;28;20025;-86
2021/11/03 07:13:13;;;;;;;121.28;35.20;;;3.70;99.90;;;;;;5023019;28;20030;-86
2021/11/03 07:15:40;;;;;;;166.13;37.45;;;3.70;99.90;;;;;;5038908;28;20021;-87
2021/11/03 07:18:07;;;;;;;98.20;34.35;;;3.70;99.90;;;;;;5038062;28;20037;-86
2021/11/03 07:20:33;;;;;;;124.53;37.80;;;3.70;99.90;;;;;;5036762;28;20400;-86
2021/11/03 07:22:59;;;;;;;202.48;43.58;;;3.70;99.90;;;;;;5022892;28;20035;-86
2021/11/03 07:25:28;;;;;;;114.25;37.13;;;3.70;99.90;;;;;;5024513;28;20053;-86
2021/11/03 07:27:59;;;;;;;102.78;35.97;;;3.70;99.90;;;;;;5039472;28;20048;-86
2021/11/03 07:30:31;;;;;;;81.37;34.50;;;3.70;99.90;;;;;;5021429;28;20164;-86
2021/11/03 07:32:57;;;;;;;110.50;36.83;;;3.80;99.90;;;;;;5021185;28;20116;-86
2021/11/03 07:35:38;;;;;;;103.07;36.70;;;3.80;99.90;;;;;;5019432;28;20104;-86
2021/11/03 07:38:08;;;;;;;65.15;34.15;;;3.80;99.90;;;;;;5019543;28;20041;-87
2021/11/03 07:40:45;;;;;;;95.55;38.83;;;3.80;99.90;;;;;;5018570;28;20060;-86
2021/11/03 07:43:14;;;;;;;85.30;36.13;;;3.90;99.90;;;;;;5016083;28;20034;-86
2021/11/03 07:45:43;;;;;;;64.50;33.20;;;3.90;99.90;;;;;;5015434;28;20022;-86
2021/11/03 07:48:10;;;;;;;69.90;35.35;;;4.00;99.90;;;;;;5014969;28;20022;-86
2021/11/03 07:50:40;;;;;;;62.55;33.53;;;4.00;99.90;;;;;;5017962;28;20098;-86
2021/11/03 07:53:07;;;;;;;61.10;34.03;;;4.00;99.90;;;;;;5017810;28;20053;-86
2021/11/03 07:55:32;;;;;;;69.93;32.55;;;4.10;99.90;;;;;;5035787;28;20056;-86
2021/11/03 07:57:58;;;;;;;65.10;31.98;;;4.10;99.90;;;;;;5017798;28;20068;-86
2021/11/03 08:00:30;;;;;;;59.08;32.33;;;4.10;99.90;;;;;;5033589;28;20083;-86
2021/11/03 08:02:55;;;;;;;55.88;31.77;;;4.10;99.90;;;;;;5017787;28;20036;-86
2021/11/03 08:05:27;;;;;;;63.88;31.98;;;4.10;99.90;;;;;;5035366;28;20454;-86
2021/11/03 08:07:53;;;;;;;64.00;33.00;;;4.10;99.90;;;;;;5016192;28;20033;-86
2021/11/03 08:10:19;;;;;;;75.00;35.40;;;4.10;99.90;;;;;;5017886;28;20079;-86
2021/11/03 08:12:45;;;;;;;73.40;35.78;;;4.20;99.90;;;;;;5034516;28;20386;-85
2021/11/03 08:15:12;;;;;;;85.20;35.95;;;4.30;99.90;;;;;;5022265;28;20033;-85
2021/11/03 08:17:39;;;;;;;64.32;35.15;;;4.30;99.90;;;;;;5022659;28;20053;-85
2021/11/03 08:20:07;;;;;;;75.22;36.00;;;4.40;99.90;;;;;;5019879;28;20486;-86
2021/11/03 08:22:34;;;;;;;80.03;39.47;;;4.50;99.90;;;;;;5022252;28;20389;-85
2021/11/03 08:25:00;;;;;;;83.25;38.83;;;4.50;99.90;;;;;;5037089;28;20029;-86
2021/11/03 08:27:26;;;;;;;73.13;36.72;;;4.60;99.90;;;;;;5034989;28;20052;-85
2021/11/03 08:29:52;;;;;;;83.65;38.55;;;4.60;99.90;;;;;;5018091;28;20033;-86
2021/11/03 08:32:28;;;;;;;72.30;36.90;;;4.70;99.90;;;;;;5012518;28;20025;-86
2021/11/03 08:34:54;;;;;;;66.72;36.65;;;4.80;99.90;;;;;;5018287;28;20048;-85
2021/11/03 08:37:25;;;;;;;69.30;36.08;;;4.90;99.90;;;;;;5014523;28;20032;-86
2021/11/03 08:39:53;;;;;;;67.72;35.72;;;4.90;99.90;;;;;;5017779;28;20120;-86
2021/11/03 08:42:23;;;;;;;63.70;36.63;;;5.00;99.90;;;;;;5017330;28;20111;-86
2021/11/03 08:44:53;;;;;;;68.10;36.97;;;5.10;99.90;;;;;;4998485;28;20030;-85
2021/11/03 08:47:19;;;;;;;71.80;38.30;;;5.10;99.90;;;;;;5018567;28;20037;-85
2021/11/03 08:49:45;;;;;;;71.63;39.15;;;5.20;99.90;;;;;;5032719;28;20477;-86
2021/11/03 08:52:12;;;;;;;72.45;39.50;;;5.20;99.90;;;;;;5017673;28;20108;-86
2021/11/03 08:54:39;;;;;;;69.05;37.78;;;5.30;99.90;;;;;;5017083;28;20041;-86
2021/11/03 08:57:06;;;;;;;66.75;38.15;;;5.30;99.90;;;;;;5040383;28;20477;-86
2021/11/03 08:59:31;;;;;;;71.25;39.63;;;5.40;99.90;;;;;;5044293;28;20037;-86
2021/11/03 09:01:57;;;;;;;69.20;38.03;;;5.40;99.90;;;;;;5035077;28;20031;-86
2021/11/03 09:04:23;;;;;;;83.90;41.63;;;5.40;99.90;;;;;;5018353;28;20029;-86
2021/11/03 09:06:48;;;;;;;70.32;39.55;;;5.40;99.90;;;;;;5045397;28;20096;-86
2021/11/03 09:09:14;;;;;;;77.90;40.85;;;5.50;99.90;;;;;;5017852;28;20068;-84
2021/11/03 09:11:40;;;;;;;82.43;41.58;;;5.60;99.90;;;;;;5018243;28;20032;-87
2021/11/03 09:14:05;;;;;;;72.05;40.35;;;5.60;99.90;;;;;;5033508;28;20033;-86
2021/11/03 09:16:31;;;;;;;92.53;46.20;;;5.70;99.90;;;;;;5031214;28;20025;-84
2021/11/03 09:18:57;;;;;;;92.88;43.72;;;5.80;99.90;;;;;;5035622;28;20059;-84
2021/11/03 09:21:23;;;;;;;81.82;41.45;;;5.80;99.90;;;;;;5031785;28;20470;-85
2021/11/03 09:23:49;;;;;;;104.40;45.65;;;5.90;99.90;;;;;;5046474;28;20167;-82
2021/11/03 09:26:18;;;;;;;99.00;43.60;;;6.00;99.90;;;;;;5031828;28;20044;-86
2021/11/03 09:28:44;;;;;;;122.05;41.53;;;6.00;99.90;;;;;;5008880;28;20041;-86
2021/11/03 09:31:11;;;;;;;123.45;41.72;;;6.00;99.90;;;;;;5034624;28;20025;-86
2021/11/03 09:33:37;;;;;;;108.75;40.72;;;6.10;99.90;;;;;;5017329;28;20025;-86
2021/11/03 09:36:10;;;;;;;113.50;43.10;;;6.10;99.90;;;;;;5018062;28;20025;-86
2021/11/03 09:38:37;;;;;;;111.50;43.42;;;6.20;99.90;;;;;;5033970;28;20037;-85
2021/11/03 09:41:07;;;;;;;100.90;42.95;;;6.30;99.90;;;;;;5016295;28;20022;-86
2021/11/03 09:43:55;;;;;;;108.95;41.80;;;6.30;99.90;;;;;;5040636;28;20033;-85
2021/11/03 09:46:25;;;;;;;119.05;41.72;;;6.50;99.90;;;;;;5054022;28;20489;-86
2021/11/03 09:49:20;;;;;;;89.22;40.67;;;6.50;99.90;;;;;;5036083;28;20031;-85
2021/11/03 09:51:54;;;;;;;86.35;40.05;;;6.60;99.90;;;;;;5027056;28;20060;-86
2021/11/03 09:54:25;;;;;;;80.03;36.65;;;6.50;99.90;;;;;;5016216;28;20048;-85
2021/11/03 09:57:17;;;;;;;170.02;43.53;;;6.60;99.90;;;;;;5024989;28;20026;-86
2021/11/03 10:00:03;;;;;;;79.13;37.15;;;6.60;99.90;;;;;;5012979;28;20096;-86
2021/11/03 10:02:42;;;;;;;115.60;40.70;;;6.60;99.90;;;;;;4996680;28;20026;-86
2021/11/03 10:05:24;;;;;;;105.18;36.60;;;6.70;99.90;;;;;;4997213;28;20084;-86
2021/11/03 10:08:18;;;;;;;130.15;38.60;;;6.70;99.90;;;;;;5012645;28;20390;-86
2021/11/03 10:11:01;;;;;;;58.97;32.15;;;6.70;99.90;;;;;;5022724;28;20124;-86
2021/11/03 10:13:32;;;;;;;59.35;33.17;;;6.80;99.90;;;;;;5021650;28;20037;-84
2021/11/03 10:16:14;;;;;;;71.38;37.22;;;6.80;99.90;;;;;;5052713;28;20036;-85
2021/11/03 10:18:52;;;;;;;56.25;31.63;;;6.80;99.90;;;;;;5041006;28;20033;-85
2021/11/03 10:21:29;;;;;;;68.07;34.90;;;6.90;99.90;;;;;;5040987;28;20025;-85
2021/11/03 10:24:14;;;;;;;194.07;42.55;;;6.90;99.90;;;;;;5023498;28;20021;-86
2021/11/03 10:26:58;;;;;;;67.45;35.30;;;7.00;99.90;;;;;;5041505;28;20095;-85
2021/11/03 10:29:34;;;;;;;60.45;33.08;;;7.10;99.90;;;;;;5039681;28;20029;-83
2021/11/03 10:32:20;;;;;;;58.85;33.25;;;7.20;99.90;;;;;;5039039;28;20030;-85
2021/11/03 10:34:59;;;;;;;57.83;33.53;;;7.30;99.90;;;;;;5041068;28;20017;-85
2021/11/03 10:37:37;;;;;;;59.17;32.85;;;7.30;99.90;;;;;;5058317;28;20025;-85
2021/11/03 10:40:42;;;;;;;59.83;32.83;;;7.40;99.90;;;;;;5027088;28;20086;-85
2021/11/03 10:43:31;;;;;;;55.55;29.80;;;7.50;99.90;;;;;;5012668;28;20099;-84
2021/11/03 10:46:12;;;;;;;47.67;29.83;;;7.60;99.90;;;;;;5037258;28;20485;-85
2021/11/03 10:48:40;;;;;;;53.17;30.88;;;7.60;99.90;;;;;;5017829;28;20029;-85
2021/11/03 10:51:20;;;;;;;54.45;32.08;;;7.60;99.90;;;;;;5037601;28;20026;-85
2021/11/03 10:54:02;;;;;;;57.97;34.95;;;7.70;99.90;;;;;;5021729;28;20571;-85
2021/11/03 10:56:46;;;;;;;78.32;36.03;;;7.80;99.90;;;;;;5038524;28;20029;-84
2021/11/03 10:59:32;;;;;;;57.28;32.83;;;7.80;99.90;;;;;;5027122;28;20045;-86
2021/11/03 11:02:26;;;;;;;63.70;34.65;;;8.00;99.90;;;;;;5024709;28;20014;-85
2021/11/03 11:04:54;;;;;;;56.78;32.55;;;8.00;99.90;;;;;;5012539;28;20132;-82
2021/11/03 11:07:24;;;;;;;52.63;32.53;;;8.10;99.90;;;;;;5026985;28;20496;-85
2021/11/03 11:10:20;;;;;;;49.70;31.75;;;8.10;99.90;;;;;;5021999;28;20025;-85
2021/11/03 11:12:56;;;;;;;48.25;30.38;;;8.20;99.90;;;;;;5048843;28;20025;-85
2021/11/03 11:15:33;;;;;;;50.47;31.27;;;8.20;99.90;;;;;;5023936;28;20569;-84
2021/11/03 11:18:45;;;;;;;47.08;29.60;;;8.20;99.90;;;;;;5022930;28;20037;-84
2021/11/03 11:21:35;;;;;;;49.65;31.13;;;8.10;99.90;;;;;;5005217;28;20033;-84
2021/11/03 11:24:08;;;;;;;53.65;30.80;;;8.10;99.90;;;;;;5022418;28;20033;-84
2021/11/03 11:27:02;;;;;;;46.20;30.08;;;8.20;99.90;;;;;;5046730;28;20057;-84
2021/11/03 11:29:57;;;;;;;46.97;30.38;;;8.20;99.90;;;;;;4999006;28;20030;-84
2021/11/03 11:32:26;;;;;;;51.50;32.83;;;8.30;99.90;;;;;;5016129;28;20088;-85
2021/11/03 11:35:13;;;;;;;46.83;29.80;;;8.30;99.90;;;;;;5016218;28;20030;-84
2021/11/03 11:38:09;;;;;;;49.60;30.30;;;8.40;99.90;;;;;;5015991;28;20040;-84
2021/11/03 11:41:02;;;;;;;44.97;29.20;;;8.40;99.90;;;;;;4998509;28;20057;-84
2021/11/03 11:43:40;;;;;;;51.63;33.00;;;8.50;99.90;;;;;;5005183;28;20025;-84
2021/11/03 11:46:17;;;;;;;47.58;29.75;;;8.50;99.90;;;;;;5035811;28;20037;-84
2021/11/03 11:48:43;;;;;;;50.83;30.45;;;8.50;99.90;;;;;;5027643;28;20033;-84
2021/11/03 11:51:15;;;;;;;49.33;30.50;;;8.50;99.90;;;;;;5035655;28;20025;-84
2021/11/03 11:54:06;;;;;;;49.40;31.20;;;8.50;99.90;;;;;;5035681;28;20049;-84
2021/11/03 11:56:33;;;;;;;50.92;32.47;;;8.50;99.90;;;;;;5017915;28;20104;-84
2021/11/03 11:59:14;;;;;;;53.88;32.80;;;8.40;99.90;;;;;;5034739;28;20038;-84
2021/11/03 12:01:58;;;;;;;50.58;32.20;;;8.50;99.90;;;;;;5016925;28;20030;-84
2021/11/03 12:04:29;;;;;;;54.72;33.65;;;8.50;99.90;;;;;;5018072;28;20421;-84
2021/11/03 12:07:07;;;;;;;53.00;31.67;;;8.50;99.90;;;;;;5035015;28;20053;-83
2021/11/03 12:09:41;;;;;;;52.92;33.00;;;8.40;99.90;;;;;;5019514;28;20448;-84
2021/11/03 12:12:07;;;;;;;54.75;33.40;;;8.50;99.90;;;;;;5017660;28;20022;-84
2021/11/03 12:14:45;;;;;;;61.72;36.10;;;8.50;99.90;;;;;;5013775;28;20482;-84
2021/11/03 12:17:35;;;;;;;66.25;36.03;;;8.40;99.90;;;;;;5005918;28;20026;-83
2021/11/03 12:20:21;;;;;;;55.42;34.20;;;8.50;99.90;;;;;;5018679;28;20140;-83
2021/11/03 12:22:49;;;;;;;56.38;34.47;;;8.50;99.90;;;;;;5034911;28;20116;-84
2021/11/03 12:25:14;;;;;;;53.25;34.22;;;8.50;99.90;;;;;;5034456;28;20068;-83
2021/11/03 12:27:42;;;;;;;52.80;34.45;;;8.60;99.90;;;;;;5034765;28;20021;-85
2021/11/03 12:30:08;;;;;;;60.25;37.00;;;8.60;99.90;;;;;;5017090;28;20120;-84
2021/11/03 12:32:57;;;;;;;63.35;36.55;;;8.60;99.90;;;;;;5016652;28;20060;-84
2021/11/03 12:35:23;;;;;;;55.15;32.72;;;8.70;99.90;;;;;;5017063;28;20025;-84
2021/11/03 12:38:21;;;;;;;54.13;33.58;;;8.80;99.90;;;;;;5034564;28;20039;-84
2021/11/03 12:40:49;;;;;;;53.95;34.40;;;8.80;99.90;;;;;;5034674;28;20018;-84
2021/11/03 12:43:20;;;;;;;53.85;32.78;;;8.70;99.90;;;;;;5016225;28;20030;-84
2021/11/03 12:46:03;;;;;;;54.72;35.05;;;8.80;99.90;;;;;;5027455;28;20421;-84
2021/11/03 12:48:30;;;;;;;;;;;8.90;99.90;;;;;;4998399;28;20502;-84